Time;durP1;ratioP1;P1;durP2;ratioP2;P2;SDS_P1;SDS_P2;PMS_P1;PMS_P2;Temp;Humidity;BMP_temperature;BMP_pressure;BME280_temperature;BME280_humidity;BME280_pressure;Samples;Min_cycle;Max_cycle;Signal;HPM_P1;HPM_P2
2021/01/28 00:01:22;;;;;;;35.65;16.50;;;;;;;0.81;96.86;96601.50;5035364;28;20146;-66
2021/01/28 00:03:47;;;;;;;41.60;17.83;;;;;;;0.86;96.89;96606.75;5041374;28;20124;-66
2021/01/28 00:06:12;;;;;;;34.38;16.55;;;;;;;0.89;96.62;96610.75;5038416;28;20102;-66
2021/01/28 00:08:39;;;;;;;39.85;17.50;;;;;;;0.91;96.76;96608.53;5038011;28;20044;-66
2021/01/28 00:11:05;;;;;;;30.60;15.95;;;;;;;0.87;96.07;96597.56;5046221;28;20053;-67
2021/01/28 00:13:30;;;;;;;33.25;16.30;;;;;;;0.91;95.57;96600.44;5055266;28;20055;-66
2021/01/28 00:15:56;;;;;;;32.25;16.13;;;;;;;0.81;95.67;96589.91;5039457;28;20041;-65
2021/01/28 00:18:21;;;;;;;30.55;16.33;;;;;;;0.70;95.57;96575.88;5038834;28;20165;-66
2021/01/28 00:20:49;;;;;;;27.75;14.77;;;;;;;0.56;95.89;96576.72;5044125;28;20045;-67
2021/01/28 00:23:15;;;;;;;36.58;17.38;;;;;;;0.31;96.49;96585.38;5039039;28;20045;-67
2021/01/28 00:25:41;;;;;;;40.83;20.10;;;;;;;0.16;97.29;96578.41;5039629;28;20069;-67
2021/01/28 00:28:09;;;;;;;41.25;18.77;;;;;;;0.09;97.86;96583.41;5034431;28;20071;-67
2021/01/28 00:30:37;;;;;;;43.80;19.83;;;;;;;0.00;98.12;96580.66;5044126;28;20045;-67
2021/01/28 00:33:03;;;;;;;44.40;19.52;;;;;;;-0.11;97.34;96584.63;5033179;28;20050;-67
2021/01/28 00:35:32;;;;;;;47.72;19.95;;;;;;;-0.22;98.08;96578.66;5039744;28;20049;-67
2021/01/28 00:37:59;;;;;;;57.28;22.25;;;;;;;-0.27;98.29;96576.06;5050861;28;20429;-67
2021/01/28 00:40:26;;;;;;;54.95;22.17;;;;;;;-0.22;98.91;96576.78;5056638;28;21084;-68
2021/01/28 00:42:51;;;;;;;54.22;20.92;;;;;;;-0.17;99.24;96577.75;5036539;28;20033;-67
2021/01/28 00:45:20;;;;;;;51.00;21.02;;;;;;;-0.15;98.99;96581.72;5035325;28;20102;-67
2021/01/28 00:47:46;;;;;;;50.55;21.13;;;;;;;-0.08;99.47;96578.66;5042529;28;20045;-67
2021/01/28 00:50:12;;;;;;;47.45;20.13;;;;;;;-0.01;99.05;96585.22;5043859;28;20052;-67
2021/01/28 00:52:39;;;;;;;44.63;19.08;;;;;;;0.06;99.17;96582.13;5043559;28;20375;-67
2021/01/28 00:55:06;;;;;;;50.08;19.40;;;;;;;0.03;99.20;96581.94;5038046;28;20144;-68
2021/01/28 00:57:31;;;;;;;47.92;19.50;;;;;;;-0.02;99.22;96580.13;5035022;28;20041;-67
2021/01/28 00:59:56;;;;;;;47.35;19.52;;;;;;;0.01;99.48;96581.44;5041569;28;20562;-68
2021/01/28 01:02:22;;;;;;;58.72;21.67;;;;;;;-0.04;99.90;96585.84;5029787;28;20605;-67
2021/01/28 01:04:47;;;;;;;66.28;21.25;;;;;;;-0.11;99.61;96580.06;5044243;28;20115;-67
2021/01/28 01:07:13;;;;;;;55.22;20.08;;;;;;;-0.10;100.00;96583.53;5039665;28;20095;-68
2021/01/28 01:09:38;;;;;;;57.10;20.98;;;;;;;-0.16;100.00;96580.16;5042940;28;20050;-68
2021/01/28 01:12:04;;;;;;;73.50;22.60;;;;;;;-0.15;100.00;96575.56;5039313;28;20044;-68
2021/01/28 01:14:29;;;;;;;59.47;20.20;;;;;;;-0.11;100.00;96571.97;5039969;28;20485;-67
2021/01/28 01:16:55;;;;;;;62.17;22.20;;;;;;;-0.01;100.00;96569.06;5041582;28;20573;-66
2021/01/28 01:19:20;;;;;;;51.97;20.52;;;;;;;-0.02;100.00;96564.78;5036966;28;20456;-68
2021/01/28 01:21:45;;;;;;;52.80;20.30;;;;;;;0.05;100.00;96567.06;5044596;28;20041;-66
2021/01/28 01:24:11;;;;;;;53.50;20.75;;;;;;;0.16;100.00;96571.16;5042922;28;20032;-67
2021/01/28 01:26:36;;;;;;;50.53;21.67;;;;;;;0.15;100.00;96557.97;5056243;28;20116;-67
2021/01/28 01:29:01;;;;;;;53.90;21.65;;;;;;;-0.02;100.00;96550.50;5063809;28;20040;-68
2021/01/28 01:31:27;;;;;;;69.82;23.45;;;;;;;-0.11;100.00;96546.94;5039760;28;20091;-69
2021/01/28 01:33:53;;;;;;;100.90;23.05;;;;;;;-0.18;100.00;96541.97;5037986;28;20091;-67
2021/01/28 01:36:18;;;;;;;55.60;21.65;;;;;;;-0.12;100.00;96543.44;5033980;28;20732;-66
2021/01/28 01:38:44;;;;;;;52.03;21.38;;;;;;;-0.01;100.00;96547.50;5038966;28;20147;-67
2021/01/28 01:41:09;;;;;;;54.92;22.67;;;;;;;-0.04;100.00;96525.78;5037522;28;20482;-67
2021/01/28 01:43:34;;;;;;;57.30;22.00;;;;;;;-0.02;100.00;96531.66;5059435;28;20047;-66
2021/01/28 01:46:10;;;;;;;55.42;20.48;;;;;;;0.06;100.00;96517.50;5064429;28;20068;-67
2021/01/28 01:48:42;;;;;;;51.85;19.05;;;;;;;0.13;100.00;96523.25;5072067;28;20577;-67
2021/01/28 01:51:21;;;;;;;53.38;20.25;;;;;;;0.16;100.00;96525.34;5077645;28;20054;-68
2021/01/28 01:53:55;;;;;;;51.58;20.48;;;;;;;0.14;100.00;96524.06;5080284;27;20063;-68
2021/01/28 01:56:30;;;;;;;58.05;20.88;;;;;;;0.12;100.00;96518.16;5073702;28;20040;-68
2021/01/28 01:59:03;;;;;;;54.58;21.63;;;;;;;0.13;100.00;96514.41;5082212;28;20080;-68
2021/01/28 02:01:33;;;;;;;63.97;21.48;;;;;;;0.12;100.00;96504.72;5072954;28;20040;-67
2021/01/28 02:04:00;;;;;;;61.80;20.50;;;;;;;0.12;100.00;96510.09;5082651;28;20135;-67
2021/01/28 02:06:34;;;;;;;64.05;21.38;;;;;;;0.13;100.00;96514.41;5075361;28;20051;-68
2021/01/28 02:09:01;;;;;;;58.35;18.83;;;;;;;0.17;100.00;96510.78;5063915;28;20581;-67
2021/01/28 02:11:27;;;;;;;54.42;19.25;;;;;;;0.24;100.00;96510.38;5051469;28;20048;-68
2021/01/28 02:13:55;;;;;;;54.63;21.00;;;;;;;0.44;100.00;96511.00;5054081;28;20392;-69
2021/01/28 02:16:24;;;;;;;55.28;19.17;;;;;;;0.44;100.00;96505.59;5041877;28;20037;-67
2021/01/28 02:18:50;;;;;;;52.67;18.25;;;;;;;0.39;100.00;96501.13;5041444;28;20045;-67
2021/01/28 02:21:26;;;;;;;46.80;18.38;;;;;;;0.25;100.00;96497.69;5032532;28;20401;-67
2021/01/28 02:24:10;;;;;;;49.63;17.35;;;;;;;0.19;100.00;96502.41;5037634;28;20993;-67
2021/01/28 02:26:39;;;;;;;55.50;17.63;;;;;;;0.12;100.00;96500.09;5050076;28;20032;-67
2021/01/28 02:29:07;;;;;;;62.63;19.67;;;;;;;0.08;100.00;96495.66;5058266;28;20040;-68
2021/01/28 02:31:33;;;;;;;51.67;18.60;;;;;;;0.12;100.00;96489.34;5058488;28;20286;-66
2021/01/28 02:33:59;;;;;;;47.75;17.60;;;;;;;0.15;100.00;96486.03;5063028;28;20509;-66
2021/01/28 02:36:32;;;;;;;42.08;16.70;;;;;;;0.15;100.00;96483.34;5051624;28;20049;-68
2021/01/28 02:38:58;;;;;;;41.60;16.23;;;;;;;0.22;100.00;96477.56;5046571;28;20044;-67
2021/01/28 02:41:24;;;;;;;66.10;17.25;;;;;;;0.15;100.00;96463.72;5054712;28;20528;-67
2021/01/28 02:43:51;;;;;;;52.70;17.42;;;;;;;0.03;100.00;96456.16;5059851;28;20071;-67
2021/01/28 02:46:17;;;;;;;45.72;16.73;;;;;;;0.05;100.00;96453.94;5044994;28;20040;-68
2021/01/28 02:48:42;;;;;;;46.55;18.65;;;;;;;0.15;100.00;96452.94;5046405;28;20099;-67
2021/01/28 02:51:10;;;;;;;45.13;16.55;;;;;;;0.11;100.00;96458.13;5060586;28;20048;-67
2021/01/28 02:53:41;;;;;;;42.03;16.52;;;;;;;0.12;100.00;96451.63;5052568;28;20044;-67
2021/01/28 02:56:07;;;;;;;46.30;17.02;;;;;;;0.26;100.00;96438.13;5045593;28;20048;-69
2021/01/28 02:58:33;;;;;;;40.53;16.40;;;;;;;0.27;100.00;96442.41;5051538;28;20206;-68
2021/01/28 03:00:58;;;;;;;41.47;16.02;;;;;;;0.26;100.00;96430.03;5055416;28;20119;-68
2021/01/28 03:03:24;;;;;;;40.65;15.63;;;;;;;0.23;99.94;96425.25;5049503;28;20615;-67
2021/01/28 03:05:50;;;;;;;41.50;15.50;;;;;;;0.25;99.94;96430.34;5059415;28;20049;-68
2021/01/28 03:08:17;;;;;;;42.92;17.38;;;;;;;0.32;100.00;96428.00;5051032;28;20545;-68
2021/01/28 03:10:43;;;;;;;57.10;16.85;;;;;;;0.24;99.97;96426.06;5053041;28;20417;-68
2021/01/28 03:13:09;;;;;;;39.15;15.80;;;;;;;0.30;99.78;96430.22;5045772;28;20132;-67
2021/01/28 03:15:35;;;;;;;39.63;16.00;;;;;;;0.16;99.92;96422.19;5052547;28;20036;-68
2021/01/28 03:18:00;;;;;;;36.97;15.50;;;;;;;0.13;100.00;96420.13;5055189;28;20152;-68
2021/01/28 03:20:26;;;;;;;47.17;14.95;;;;;;;0.15;100.00;96415.22;5052969;28;20052;-68
2021/01/28 03:22:51;;;;;;;47.40;16.15;;;;;;;0.02;100.00;96405.28;5056099;28;20051;-68
2021/01/28 03:25:19;;;;;;;48.20;16.02;;;;;;;-0.05;100.00;96405.75;5050426;28;20532;-68
2021/01/28 03:27:45;;;;;;;42.42;15.65;;;;;;;0.03;99.93;96394.22;5059021;28;20389;-68
2021/01/28 03:30:14;;;;;;;39.67;15.73;;;;;;;0.11;100.00;96395.38;5047723;28;20048;-68
2021/01/28 03:32:40;;;;;;;39.13;15.55;;;;;;;0.18;99.68;96410.03;5051599;28;20408;-68
2021/01/28 03:35:07;;;;;;;39.42;15.52;;;;;;;0.26;99.78;96402.31;5054084;28;20041;-68
2021/01/28 03:37:32;;;;;;;37.97;14.82;;;;;;;0.36;100.00;96396.66;5060337;28;20059;-67
2021/01/28 03:39:58;;;;;;;32.53;14.52;;;;;;;0.35;99.73;96401.25;5056257;28;20040;-66
2021/01/28 03:42:24;;;;;;;36.30;14.05;;;;;;;0.12;99.52;96394.28;5053365;28;20774;-69
2021/01/28 03:44:50;;;;;;;38.67;13.60;;;;;;;-0.10;99.81;96398.56;5052666;28;20521;-66
2021/01/28 03:47:15;;;;;;;37.47;14.23;;;;;;;-0.12;100.00;96389.22;5042061;28;20047;-67
2021/01/28 03:49:41;;;;;;;37.55;13.55;;;;;;;-0.20;100.00;96393.41;5068469;28;20043;-68
2021/01/28 03:52:06;;;;;;;38.25;13.05;;;;;;;-0.21;100.00;96387.25;5056285;28;20048;-67
2021/01/28 03:54:31;;;;;;;38.83;14.05;;;;;;;-0.23;100.00;96381.38;5055323;28;20101;-67
2021/01/28 03:56:57;;;;;;;43.40;14.90;;;;;;;-0.23;100.00;96378.69;5059903;28;20037;-67
2021/01/28 03:59:22;;;;;;;43.15;13.55;;;;;;;-0.25;100.00;96378.19;5045380;28;20487;-68
2021/01/28 04:01:48;;;;;;;42.20;14.70;;;;;;;-0.29;100.00;96379.91;5058314;28;20029;-67
2021/01/28 04:04:13;;;;;;;39.22;14.18;;;;;;;-0.21;100.00;96364.91;5050183;28;20463;-67
2021/01/28 04:06:39;;;;;;;38.42;13.25;;;;;;;-0.14;100.00;96367.19;5057282;28;20409;-67
2021/01/28 04:09:04;;;;;;;32.13;12.82;;;;;;;-0.11;100.00;96363.88;5051712;28;20045;-68
2021/01/28 04:11:30;;;;;;;38.42;13.43;;;;;;;-0.04;100.00;96366.94;5055084;28;20477;-67
2021/01/28 04:13:55;;;;;;;33.55;12.40;;;;;;;-0.01;100.00;96350.97;5062796;28;20036;-67
2021/01/28 04:16:21;;;;;;;35.85;13.20;;;;;;;0.08;100.00;96356.41;5064872;28;21447;-68
2021/01/28 04:18:46;;;;;;;33.97;12.05;;;;;;;-0.03;100.00;96349.69;5083578;28;20079;-67
2021/01/28 04:21:11;;;;;;;32.78;12.52;;;;;;;-0.08;100.00;96339.81;5058360;28;20044;-68
2021/01/28 04:23:37;;;;;;;35.60;13.35;;;;;;;-0.11;100.00;96335.06;5055143;28;20044;-67
2021/01/28 04:26:03;;;;;;;34.15;13.10;;;;;;;-0.11;100.00;96323.50;5051662;28;20044;-67
2021/01/28 04:28:29;;;;;;;36.50;11.60;;;;;;;-0.17;100.00;96322.03;5056238;28;20053;-67
2021/01/28 04:30:54;;;;;;;50.60;12.18;;;;;;;-0.28;100.00;96313.41;5060599;28;20033;-68
2021/01/28 04:33:19;;;;;;;40.17;11.52;;;;;;;-0.28;100.00;96308.81;5044317;28;20045;-67
2021/01/28 04:35:45;;;;;;;39.60;13.18;;;;;;;-0.34;100.00;96295.78;5054293;28;20118;-68
2021/01/28 04:38:10;;;;;;;41.78;12.20;;;;;;;-0.34;100.00;96303.84;5044940;28;20040;-67
2021/01/28 04:40:48;;;;;;;44.78;12.75;;;;;;;-0.35;100.00;96303.06;5050967;28;20570;-66
2021/01/28 04:43:26;;;;;;;43.42;12.90;;;;;;;-0.38;100.00;96292.91;5054148;28;20051;-67
2021/01/28 04:45:56;;;;;;;40.13;12.13;;;;;;;-0.40;100.00;96282.47;5058284;28;20047;-67
2021/01/28 04:48:22;;;;;;;40.08;12.73;;;;;;;-0.41;100.00;96282.78;5054793;28;20044;-67
2021/01/28 04:50:48;;;;;;;36.67;11.18;;;;;;;-0.34;100.00;96266.19;5059604;28;20405;-67
2021/01/28 04:53:25;;;;;;;40.05;12.23;;;;;;;-0.26;100.00;96266.22;5054053;28;20051;-67
2021/01/28 04:55:53;;;;;;;44.25;13.48;;;;;;;-0.17;100.00;96265.50;5059825;28;20097;-67
2021/01/28 04:58:19;;;;;;;32.67;9.98;;;;;;;-0.28;100.00;96246.91;5047809;28;20459;-66
2021/01/28 05:00:45;;;;;;;32.17;9.60;;;;;;;-0.26;100.00;96252.78;5062428;28;20047;-67
2021/01/28 05:03:19;;;;;;;37.55;11.63;;;;;;;-0.19;100.00;96249.66;5050430;28;20058;-67
2021/01/28 05:05:48;;;;;;;31.05;10.35;;;;;;;-0.15;100.00;96241.75;5056895;28;20489;-67
2021/01/28 05:08:14;;;;;;;36.03;13.07;;;;;;;-0.15;100.00;96231.78;5052665;28;20056;-67
2021/01/28 05:10:50;;;;;;;43.33;17.05;;;;;;;-0.06;100.00;96237.22;5062386;28;20564;-67
2021/01/28 05:13:37;;;;;;;26.63;9.63;;;;;;;-0.13;100.00;96223.41;5064318;28;20048;-67
2021/01/28 05:16:20;;;;;;;37.03;11.60;;;;;;;0.04;100.00;96223.50;5059990;28;20044;-67
2021/01/28 05:18:59;;;;;;;28.20;10.70;;;;;;;0.14;100.00;96225.91;5061249;28;20045;-68
2021/01/28 05:21:27;;;;;;;26.50;9.68;;;;;;;-0.06;100.00;96221.84;5055217;28;20728;-66
2021/01/28 05:24:01;;;;;;;27.27;9.35;;;;;;;-0.01;100.00;96219.03;5061803;28;20106;-66
2021/01/28 05:26:40;;;;;;;27.67;9.52;;;;;;;-0.18;100.00;96213.59;5052255;28;20040;-66
2021/01/28 05:29:14;;;;;;;23.70;9.10;;;;;;;-0.18;100.00;96208.19;5046953;28;20045;-67
2021/01/28 05:31:39;;;;;;;24.08;9.32;;;;;;;-0.04;100.00;96200.81;5058720;28;20055;-67
2021/01/28 05:34:11;;;;;;;22.77;9.52;;;;;;;0.15;100.00;96205.16;5054787;28;20135;-67
2021/01/28 05:36:50;;;;;;;24.02;9.48;;;;;;;-0.06;100.00;96191.44;5055415;28;20497;-67
2021/01/28 05:39:29;;;;;;;23.00;9.13;;;;;;;-0.16;100.00;96194.41;5047911;28;20044;-68
2021/01/28 05:42:13;;;;;;;;;;;;;;;-0.12;100.00;96176.56;5061245;28;20047;-68
2021/01/28 05:44:40;;;;;;;24.45;8.68;;;;;;;-0.10;100.00;96179.72;5052930;28;20385;-68
2021/01/28 05:47:12;;;;;;;23.73;9.10;;;;;;;-0.05;100.00;96177.69;5054257;28;20441;-69
2021/01/28 05:49:42;;;;;;;21.75;8.75;;;;;;;0.02;100.00;96179.13;5057462;28;20036;-67
2021/01/28 05:52:19;;;;;;;24.38;9.73;;;;;;;-0.01;100.00;96170.56;5053548;28;20068;-67
2021/01/28 05:55:06;;;;;;;25.85;10.10;;;;;;;-0.13;100.00;96172.25;5054819;28;20045;-67
2021/01/28 05:57:40;;;;;;;24.08;9.75;;;;;;;-0.06;100.00;96175.28;5060047;28;20112;-67
2021/01/28 06:00:30;;;;;;;23.50;9.73;;;;;;;-0.06;100.00;96170.69;5044359;28;20049;-67
2021/01/28 06:03:13;;;;;;;28.25;10.05;;;;;;;-0.01;100.00;96165.19;5060974;28;20058;-67
2021/01/28 06:06:05;;;;;;;32.63;10.85;;;;;;;-0.04;100.00;96168.50;5059674;28;20044;-67
2021/01/28 06:08:50;;;;;;;26.38;10.32;;;;;;;-0.06;100.00;96156.44;5054188;28;20136;-67
2021/01/28 06:11:41;;;;;;;26.65;9.90;;;;;;;-0.04;100.00;96154.25;5053699;28;20044;-67
2021/01/28 06:14:41;;;;;;;27.83;10.35;;;;;;;0.06;100.00;96155.88;5050951;28;20091;-67
2021/01/28 06:17:22;;;;;;;25.85;9.95;;;;;;;0.00;100.00;96155.22;5037287;28;20043;-68
2021/01/28 06:20:22;;;;;;;24.88;10.30;;;;;;;0.03;100.00;96157.28;5058131;28;20075;-68
2021/01/28 06:23:14;;;;;;;27.38;10.43;;;;;;;0.08;100.00;96143.66;4968660;28;20598;-68
2021/01/28 06:26:01;;;;;;;25.50;9.88;;;;;;;0.06;100.00;96134.34;5041302;28;20136;-68
2021/01/28 06:28:45;;;;;;;26.85;10.30;;;;;;;0.07;100.00;96139.38;5052007;28;20381;-67
2021/01/28 06:31:55;;;;;;;26.50;9.32;;;;;;;0.13;100.00;96134.66;5045176;28;20052;-68
2021/01/28 06:34:37;;;;;;;;;;;;;;;0.11;100.00;96126.91;5042986;28;20163;-67
2021/01/28 06:37:27;;;;;;;27.50;9.48;;;;;;;0.12;100.00;96125.00;5050667;28;19979;-68
2021/01/28 06:39:56;;;;;;;30.13;10.88;;;;;;;0.11;100.00;96121.50;5040488;28;20045;-68
2021/01/28 06:42:32;;;;;;;31.90;11.32;;;;;;;0.12;100.00;96119.59;5029086;28;20911;-68
2021/01/28 06:45:03;;;;;;;30.10;9.65;;;;;;;0.22;100.00;96123.88;5040204;28;20106;-67
2021/01/28 06:47:36;;;;;;;22.95;9.55;;;;;;;0.28;100.00;96111.88;5037501;28;20041;-67
2021/01/28 06:50:12;;;;;;;25.52;10.15;;;;;;;0.26;100.00;96108.72;5054599;28;20559;-67
2021/01/28 06:52:50;;;;;;;25.15;9.55;;;;;;;0.23;100.00;96103.94;5074335;28;20055;-68
2021/01/28 06:55:15;;;;;;;24.80;9.43;;;;;;;0.26;100.00;96100.63;5056037;28;20514;-68
2021/01/28 06:57:54;;;;;;;26.55;9.95;;;;;;;0.26;100.00;96100.63;5061081;28;20131;-68
2021/01/28 07:00:37;;;;;;;29.33;10.13;;;;;;;0.31;100.00;96095.09;5051235;28;20132;-68
2021/01/28 07:03:20;;;;;;;24.30;9.73;;;;;;;0.27;100.00;96089.53;5054232;28;20037;-68
2021/01/28 07:05:50;;;;;;;23.40;9.30;;;;;;;0.28;100.00;96087.63;5056618;28;20040;-68
2021/01/28 07:08:40;;;;;;;23.55;9.70;;;;;;;0.25;100.00;96085.56;5054830;28;20117;-68
2021/01/28 07:11:21;;;;;;;24.73;9.82;;;;;;;0.30;100.00;96088.13;5059584;28;20135;-69
2021/01/28 07:13:46;;;;;;;22.92;8.70;;;;;;;0.35;100.00;96088.75;5052832;28;20086;-69
2021/01/28 07:16:28;;;;;;;23.15;9.25;;;;;;;0.46;100.00;96083.84;5055932;28;20053;-69
2021/01/28 07:18:59;;;;;;;21.73;9.30;;;;;;;0.57;100.00;96087.03;5055589;28;20409;-70
2021/01/28 07:21:29;;;;;;;26.10;9.85;;;;;;;0.68;100.00;96085.59;5052553;28;20665;-69
2021/01/28 07:24:08;;;;;;;22.35;11.45;;;;;;;0.74;100.00;96076.25;5065007;28;20052;-69
2021/01/28 07:26:50;;;;;;;22.77;10.00;;;;;;;0.63;100.00;96071.47;5078235;28;20079;-69
2021/01/28 07:29:54;;;;;;;24.92;9.18;;;;;;;0.55;100.00;96071.16;5052232;28;20456;-68
2021/01/28 07:32:22;;;;;;;20.10;9.27;;;;;;;0.57;100.00;96060.84;5051998;28;20051;-68
2021/01/28 07:35:22;;;;;;;20.08;8.95;;;;;;;0.65;100.00;96066.56;5055617;28;20156;-68
2021/01/28 07:37:48;;;;;;;22.30;9.18;;;;;;;0.75;100.00;96067.03;5049476;28;20037;-68
2021/01/28 07:40:52;;;;;;;18.80;9.75;;;;;;;0.81;100.00;96067.69;5053845;28;20052;-68
2021/01/28 07:43:25;;;;;;;17.33;8.52;;;;;;;0.76;100.00;96067.84;5052627;28;20044;-69
2021/01/28 07:46:26;;;;;;;22.33;10.07;;;;;;;0.83;100.00;96064.66;5059447;28;20076;-68
2021/01/28 07:49:15;;;;;;;16.67;7.97;;;;;;;1.03;100.00;96069.38;5063691;28;20063;-68
2021/01/28 07:52:15;;;;;;;27.17;10.45;;;;;;;1.14;100.00;96067.94;5064294;28;20044;-69
2021/01/28 07:54:52;;;;;;;19.55;9.85;;;;;;;1.20;100.00;96059.69;5062534;28;20040;-68
2021/01/28 07:57:29;;;;;;;14.85;8.57;;;;;;;1.20;100.00;96059.69;5051163;28;20132;-68
2021/01/28 08:00:01;;;;;;;19.25;9.55;;;;;;;1.21;100.00;96061.28;5063104;28;20048;-69
2021/01/28 08:02:29;;;;;;;21.73;10.10;;;;;;;1.27;99.97;96057.28;5048777;28;20044;-68
2021/01/28 08:05:05;;;;;;;17.27;9.52;;;;;;;1.28;100.00;96058.88;5058858;28;20045;-68
2021/01/28 08:08:02;;;;;;;20.30;10.68;;;;;;;1.02;99.63;96054.31;5050065;28;20044;-68
2021/01/28 08:10:36;;;;;;;25.60;13.43;;;;;;;0.80;100.00;96033.75;5054120;28;20048;-69
2021/01/28 08:13:08;;;;;;;27.15;11.98;;;;;;;0.81;100.00;96037.22;5063588;28;20036;-68
2021/01/28 08:15:47;;;;;;;35.00;15.30;;;;;;;0.74;100.00;96026.94;5062832;28;20045;-68
2021/01/28 08:18:19;;;;;;;35.50;20.05;;;;;;;0.71;100.00;96014.09;5059024;28;20051;-69
2021/01/28 08:20:45;;;;;;;38.80;23.15;;;;;;;0.72;100.00;96015.66;5055852;28;20049;-68
2021/01/28 08:23:25;;;;;;;23.27;11.77;;;;;;;0.72;100.00;96005.69;5056037;28;20048;-68
2021/01/28 08:25:56;;;;;;;25.75;14.07;;;;;;;0.72;100.00;96000.31;5058730;28;20045;-68
2021/01/28 08:28:24;;;;;;;19.00;9.55;;;;;;;0.74;100.00;96000.00;5056080;28;20082;-68
2021/01/28 08:30:59;;;;;;;21.60;9.65;;;;;;;0.79;100.00;95986.31;5055423;28;20041;-69
2021/01/28 08:33:26;;;;;;;18.92;9.68;;;;;;;0.90;100.00;95981.38;5057602;28;20055;-68
2021/01/28 08:36:02;;;;;;;27.58;14.20;;;;;;;1.01;100.00;95977.22;5063401;28;20046;-68
2021/01/28 08:38:27;;;;;;;20.65;10.30;;;;;;;0.90;100.00;95971.41;5052996;28;20048;-69
2021/01/28 08:41:00;;;;;;;16.52;8.40;;;;;;;0.91;100.00;95966.78;5054214;28;20044;-69
2021/01/28 08:43:26;;;;;;;18.58;9.32;;;;;;;1.00;100.00;95958.69;5045900;28;20052;-70
2021/01/28 08:46:21;;;;;;;17.45;8.65;;;;;;;1.04;100.00;95959.59;5055843;28;20052;-68
2021/01/28 08:48:47;;;;;;;16.85;9.20;;;;;;;1.07;100.00;95953.56;4997220;28;20044;-68
2021/01/28 08:51:24;;;;;;;13.63;8.02;;;;;;;1.19;100.00;95955.56;5029266;28;20045;-70
2021/01/28 08:54:19;;;;;;;17.60;9.02;;;;;;;1.32;100.00;95949.19;5079599;28;20488;-68
2021/01/28 08:56:45;;;;;;;16.67;9.05;;;;;;;1.40;100.00;95944.84;5060778;28;20045;-68
2021/01/28 08:59:15;;;;;;;19.27;9.57;;;;;;;1.46;100.00;95944.34;5053096;28;20128;-69
2021/01/28 09:01:47;;;;;;;16.95;9.40;;;;;;;1.64;100.00;95938.81;5049896;28;20386;-68
2021/01/28 09:04:36;;;;;;;13.90;7.70;;;;;;;1.68;100.00;95935.16;5036444;28;20072;-69
2021/01/28 09:07:02;;;;;;;17.27;8.13;;;;;;;1.74;100.00;95929.56;5038402;28;20065;-68
2021/01/28 09:09:32;;;;;;;13.10;7.72;;;;;;;1.83;99.92;95933.78;5031987;28;20045;-68
2021/01/28 09:12:31;;;;;;;17.63;8.27;;;;;;;1.78;99.77;95925.09;5037220;28;20044;-68
2021/01/28 09:15:23;;;;;;;10.82;5.68;;;;;;;1.77;99.99;95928.94;5059694;28;20374;-69
2021/01/28 09:17:50;;;;;;;18.02;7.97;;;;;;;1.84;99.47;95926.50;5053848;28;20504;-69
2021/01/28 09:20:29;;;;;;;14.07;7.68;;;;;;;2.05;99.18;95931.88;5043096;28;20041;-68
2021/01/28 09:23:17;;;;;;;12.90;7.20;;;;;;;1.98;98.75;95937.81;5052107;28;20050;-69
2021/01/28 09:25:44;;;;;;;13.27;7.63;;;;;;;1.96;98.49;95929.25;5051333;28;20485;-68
2021/01/28 09:28:28;;;;;;;14.55;7.53;;;;;;;1.99;98.73;95934.00;5048837;28;20107;-69
2021/01/28 09:30:54;;;;;;;17.67;7.68;;;;;;;1.88;98.36;95932.81;5056357;28;20040;-69
2021/01/28 09:33:36;;;;;;;12.80;7.03;;;;;;;1.99;97.68;95936.69;5054937;28;20543;-69
2021/01/28 09:36:17;;;;;;;13.73;6.55;;;;;;;1.92;98.44;95926.41;5053109;28;20065;-69
2021/01/28 09:39:11;;;;;;;17.63;8.85;;;;;;;2.04;98.52;95920.28;5049594;28;20051;-68
2021/01/28 09:41:43;;;;;;;31.75;13.77;;;;;;;2.12;98.42;95918.63;5039057;28;20178;-68
2021/01/28 09:44:27;;;;;;;21.23;11.82;;;;;;;2.08;98.54;95915.78;5029627;28;20049;-67
2021/01/28 09:47:15;;;;;;;19.02;10.32;;;;;;;2.30;97.82;95908.47;5024441;28;20088;-70
2021/01/28 09:49:41;;;;;;;17.42;9.30;;;;;;;2.28;96.90;95908.00;5023116;28;20397;-68
2021/01/28 09:52:17;;;;;;;13.77;7.43;;;;;;;2.23;98.73;95898.22;5018479;28;20132;-68
2021/01/28 09:54:42;;;;;;;16.08;9.80;;;;;;;2.52;98.19;95907.31;5025857;28;20559;-69
2021/01/28 09:57:07;;;;;;;11.07;6.20;;;;;;;2.49;97.18;95905.28;5031921;28;20053;-69
2021/01/28 09:59:33;;;;;;;9.57;6.57;;;;;;;2.54;96.37;95910.47;5034663;28;20049;-70
2021/01/28 10:01:58;;;;;;;9.80;6.35;;;;;;;2.34;95.97;95893.19;5042247;28;20037;-70
2021/01/28 10:04:23;;;;;;;10.93;6.82;;;;;;;2.40;95.41;95902.66;5031926;28;20173;-70
2021/01/28 10:06:49;;;;;;;10.95;6.70;;;;;;;2.38;95.85;95896.78;5034437;28;20056;-70
2021/01/28 10:09:15;;;;;;;10.38;7.40;;;;;;;2.27;96.88;95890.22;5027012;28;20045;-70
2021/01/28 10:11:40;;;;;;;17.55;8.63;;;;;;;2.20;97.27;95881.88;5040806;28;20432;-70
2021/01/28 10:14:06;;;;;;;12.20;7.78;;;;;;;2.11;97.84;95879.25;5031359;28;20045;-70
2021/01/28 10:16:32;;;;;;;11.57;7.40;;;;;;;2.04;97.57;95879.78;5039920;28;20072;-70
2021/01/28 10:18:58;;;;;;;11.48;7.35;;;;;;;2.01;99.12;95869.63;5033428;28;20049;-69
2021/01/28 10:21:23;;;;;;;11.98;7.05;;;;;;;2.15;99.18;95871.25;5033920;28;20732;-70
2021/01/28 10:23:48;;;;;;;11.93;7.47;;;;;;;2.12;99.00;95870.00;5038538;28;20136;-69
2021/01/28 10:26:14;;;;;;;12.68;7.82;;;;;;;2.27;99.22;95864.00;5036574;28;20044;-69
2021/01/28 10:28:39;;;;;;;10.20;6.78;;;;;;;2.34;99.35;95868.84;5039330;28;20035;-69
2021/01/28 10:31:06;;;;;;;10.43;7.00;;;;;;;2.39;98.82;95862.44;5031486;28;20040;-69
2021/01/28 10:33:33;;;;;;;13.35;6.82;;;;;;;2.38;98.62;95864.34;5034598;28;20041;-69
2021/01/28 10:35:59;;;;;;;10.88;5.97;;;;;;;2.43;99.16;95869.56;5032902;28;20559;-69
2021/01/28 10:38:24;;;;;;;11.88;6.70;;;;;;;2.63;99.05;95859.78;5032426;28;20059;-69
2021/01/28 10:40:52;;;;;;;15.20;8.18;;;;;;;2.71;98.83;95871.63;5038130;28;20045;-69
2021/01/28 10:43:19;;;;;;;18.35;8.23;;;;;;;2.86;98.15;95859.34;5031328;28;20049;-69
2021/01/28 10:45:45;;;;;;;12.10;7.32;;;;;;;3.05;98.19;95853.41;5037363;28;20060;-68
2021/01/28 10:48:10;;;;;;;9.10;5.50;;;;;;;3.21;97.63;95848.09;5030515;28;20095;-69
2021/01/28 10:50:36;;;;;;;10.20;6.28;;;;;;;3.13;96.95;95846.28;5031865;28;20048;-68
2021/01/28 10:53:02;;;;;;;10.68;5.22;;;;;;;3.16;97.09;95840.22;5032838;28;20080;-70
2021/01/28 10:55:31;;;;;;;10.50;5.75;;;;;;;3.22;97.39;95833.44;5034167;28;20135;-68
2021/01/28 10:57:56;;;;;;;9.30;5.70;;;;;;;3.21;97.55;95827.22;5033206;28;20045;-70
2021/01/28 11:00:23;;;;;;;8.32;4.40;;;;;;;3.31;98.00;95825.19;5035112;28;20390;-69
2021/01/28 11:02:49;;;;;;;8.25;4.10;;;;;;;3.47;98.55;95827.97;5043566;28;20037;-69
2021/01/28 11:05:17;;;;;;;8.50;4.60;;;;;;;3.58;98.01;95823.66;5026773;28;20418;-69
2021/01/28 11:07:42;;;;;;;9.65;4.78;;;;;;;3.60;97.87;95826.81;5038294;28;20047;-69
2021/01/28 11:10:08;;;;;;;8.05;4.82;;;;;;;3.63;97.65;95812.59;5032570;28;20044;-69
2021/01/28 11:12:34;;;;;;;7.60;4.55;;;;;;;3.69;97.64;95818.56;5034590;28;20069;-69
2021/01/28 11:14:59;;;;;;;8.68;4.85;;;;;;;3.69;97.75;95811.25;5032812;28;20045;-68
2021/01/28 11:17:24;;;;;;;9.50;5.50;;;;;;;3.75;97.66;95815.28;5034817;28;20044;-70
2021/01/28 11:19:50;;;;;;;9.77;5.85;;;;;;;3.79;97.76;95816.16;5035977;28;20049;-69
2021/01/28 11:22:15;;;;;;;11.32;6.05;;;;;;;3.81;97.38;95813.09;5029515;28;20132;-69
2021/01/28 11:24:41;;;;;;;16.33;7.85;;;;;;;3.96;97.39;95817.78;5043062;28;20107;-70
2021/01/28 11:27:06;;;;;;;10.32;6.13;;;;;;;3.95;97.04;95818.13;5044642;28;20264;-69
2021/01/28 11:29:31;;;;;;;10.75;5.18;;;;;;;3.92;96.28;95816.88;5065304;28;20127;-70
2021/01/28 11:31:57;;;;;;;10.63;3.70;;;;;;;4.00;96.77;95820.59;5065878;28;20044;-70
2021/01/28 11:34:25;;;;;;;6.88;4.30;;;;;;;4.02;97.08;95823.75;5051625;28;20053;-70
2021/01/28 11:36:51;;;;;;;5.78;3.60;;;;;;;4.09;97.75;95817.72;5053691;28;20075;-71
2021/01/28 11:39:17;;;;;;;6.65;3.25;;;;;;;4.13;97.45;95819.41;5050436;28;20072;-68
2021/01/28 11:41:42;;;;;;;7.43;3.63;;;;;;;4.16;97.86;95809.78;5062543;28;20045;-68